Lakeport, CA (95453)

12:29 PM PST on December 17, 2014 (GMT -0800)
Lakeport NW | Change Station
CLOSE
Current Station
Personal Weather Station
Location: Lakeport, CA
Elevation: 1378 ft
Nearby Weather Stations

Elev 1378 ft 39.06 °N, 122.93 °W | Updated 0 second ago

Overcast
Overcast
52.5 °F
Feels Like 52.5 °F
N
0.0
Wind Variable Wind from WNW
Gusts 0.0 mph

Today
High -- | Low -- °F
--% Chance of Precip.
Yesterday
High -- | Low -- °F
Precip. -- in
7:24 AM 4:50 PM
Waning Crescent, 20% visible
Pressure 30.01 in
Visibility 10.0 miles
Clouds Few 1600 ft
Mostly Cloudy 3600 ft
Overcast 10000 ft
Dew Point 47 °F
Humidity 81%
Rainfall 0.00 in
Snow Depth Not available.
UV 1 out of 12
Pollen .60 out of 12
Air Quality Not available.
Flu Activity Not available.
METAR KUKI 171956Z AUTO 18005KT 10SM FEW016 BKN036 OVC100 12/07 A3002 RMK AO2 SLP163 T01220072

More Conditions Fewer Conditions

Pressure 30.01 in
Visibility 10.0 miles
Clouds Few 1600 ft
Mostly Cloudy 3600 ft
Overcast 10000 ft
Dew Point 47 °F
Humidity 81%
Rainfall 0.00 in
Snow Depth Not available.
UV 1 out of 12
Pollen .60 out of 12
Air Quality Not available.
Flu Activity Not available.
METAR KUKI 171956Z AUTO 18005KT 10SM FEW016 BKN036 OVC100 12/07 A3002 RMK AO2 SLP163 T01220072

More Conditions Fewer Conditions

10-Day Weather Forecast

Almanac

Astronomy

Dec. 17, 2014 Rise Set
Actual Time
Civil Twilight
Nautical Twilight
Astronomical Twilight
Moon
Length of Visible Light
Length of Day
Tomorrow will be .
, % of the Moon is Illuminated

Today's Extremes

State Highs State Lows

Community

WunderPhotos

Upload Photos

1,778,803 photos uploaded!

WunderBlogs® & News

Nearby

Air Quality

  Air Quality AQ Index Pollutant
Not available.

Snow Depth

Station Depth Elevation

Earthquake Activity

City Distance Mag. Time & Date
Minimum magnitude displayed is 2.5.

Coastal Water Temperatures

Place Temperature

Nearby Weather Stations